Time;durP1;ratioP1;P1;durP2;ratioP2;P2;SDS_P1;SDS_P2;PMS_P1;PMS_P2;Temp;Humidity;BMP_temperature;BMP_pressure;BME280_temperature;BME280_humidity;BME280_pressure;Samples;Min_cycle;Max_cycle;Signal;HPM_P1;HPM_P2
2022/07/03 00:02:06;;;;;;;6.25;2.72;;;;;;;16.10;100.00;96951.50;4957819;28;20045;-68
2022/07/03 00:04:32;;;;;;;5.38;2.40;;;;;;;16.10;100.00;96945.97;4974566;28;20047;-71
2022/07/03 00:06:57;;;;;;;5.93;2.90;;;;;;;16.07;100.00;96944.00;4978346;28;20059;-69
2022/07/03 00:09:23;;;;;;;6.13;1.98;;;;;;;16.01;100.00;96948.34;4973095;28;20801;-68
2022/07/03 00:11:49;;;;;;;5.57;2.38;;;;;;;15.93;100.00;96953.06;4976242;28;20054;-68
2022/07/03 00:14:14;;;;;;;4.25;2.22;;;;;;;15.87;100.00;96949.16;4971232;28;20692;-68
2022/07/03 00:16:40;;;;;;;9.15;2.30;;;;;;;15.85;100.00;96951.50;4961692;28;20049;-69
2022/07/03 00:19:07;;;;;;;4.65;2.50;;;;;;;15.83;100.00;96954.66;4958792;28;20038;-71
2022/07/03 00:21:46;;;;;;;5.00;2.10;;;;;;;15.82;100.00;96949.53;4981201;28;20101;-70
2022/07/03 00:24:20;;;;;;;4.95;2.30;;;;;;;15.82;100.00;96944.00;4963391;28;20054;-69
2022/07/03 00:26:51;;;;;;;4.68;2.30;;;;;;;15.84;100.00;96952.69;4965264;28;20075;-68
2022/07/03 00:29:17;;;;;;;4.78;2.08;;;;;;;15.80;100.00;96947.16;4961102;28;20130;-70
2022/07/03 00:31:43;;;;;;;3.90;2.20;;;;;;;15.79;100.00;96951.13;4964332;28;20039;-70
2022/07/03 00:34:14;;;;;;;5.28;2.40;;;;;;;15.76;100.00;96949.16;4959810;28;20221;-70
2022/07/03 00:36:41;;;;;;;3.70;2.08;;;;;;;15.68;100.00;96942.81;4964990;28;20109;-70
2022/07/03 00:39:06;;;;;;;4.57;2.10;;;;;;;15.35;100.00;96943.19;4961726;28;20505;-70
2022/07/03 00:41:35;;;;;;;8.18;2.22;;;;;;;15.02;100.00;96940.34;4963355;28;20078;-69
2022/07/03 00:44:01;;;;;;;6.37;2.60;;;;;;;14.79;100.00;96942.66;4961197;28;20082;-69
2022/07/03 00:46:28;;;;;;;6.95;2.40;;;;;;;14.82;100.00;96941.84;4960097;28;20050;-65
2022/07/03 00:48:56;;;;;;;7.32;2.90;;;;;;;14.98;100.00;96938.75;4959474;28;20062;-66
2022/07/03 00:51:30;;;;;;;7.60;2.42;;;;;;;15.07;100.00;96937.22;4941477;28;20041;-65
2022/07/03 00:53:58;;;;;;;5.15;2.45;;;;;;;15.17;100.00;96945.91;4963838;28;20108;-66
2022/07/03 00:56:26;;;;;;;4.40;2.70;;;;;;;15.25;100.00;96945.53;4954607;28;20043;-66
2022/07/03 00:58:54;;;;;;;5.93;2.20;;;;;;;15.34;100.00;96947.91;4956057;28;20093;-67
2022/07/03 01:01:22;;;;;;;4.30;2.47;;;;;;;15.47;100.00;96951.09;4956791;28;20170;-64
2022/07/03 01:03:53;;;;;;;3.20;2.03;;;;;;;15.49;100.00;96949.50;4963647;28;20051;-68
2022/07/03 01:06:21;;;;;;;4.72;2.38;;;;;;;15.49;100.00;96948.72;4974791;28;20570;-67
2022/07/03 01:08:51;;;;;;;6.32;2.35;;;;;;;15.46;100.00;96957.78;4964894;28;20051;-65
2022/07/03 01:11:26;;;;;;;3.47;2.30;;;;;;;15.45;100.00;96956.22;4959671;28;20231;-65
2022/07/03 01:13:59;;;;;;;3.58;1.92;;;;;;;15.43;100.00;96955.78;4983818;28;20043;-66
2022/07/03 01:16:36;;;;;;;4.13;2.50;;;;;;;15.40;100.00;96949.09;4978391;28;20047;-66
2022/07/03 01:19:30;;;;;;;5.05;2.08;;;;;;;15.33;100.00;96949.09;4972570;28;20602;-66
2022/07/03 01:22:27;;;;;;;11.15;2.38;;;;;;;15.33;100.00;96951.06;4959762;28;20054;-67
2022/07/03 01:25:15;;;;;;;9.38;3.05;;;;;;;15.25;100.00;96941.97;4966620;28;20146;-66
2022/07/03 01:27:46;;;;;;;4.97;1.85;;;;;;;15.21;100.00;96939.19;4947202;28;20039;-66
2022/07/03 01:30:12;;;;;;;9.00;2.30;;;;;;;15.22;100.00;96935.28;4939514;28;20153;-67
2022/07/03 01:32:43;;;;;;;3.15;2.13;;;;;;;15.25;100.00;96945.53;4944754;28;20173;-65
2022/07/03 01:35:12;;;;;;;3.90;2.45;;;;;;;15.19;100.00;96936.03;4970951;28;20123;-66
2022/07/03 01:37:40;;;;;;;2.97;2.30;;;;;;;14.99;100.00;96940.34;4969213;28;20101;-65
2022/07/03 01:40:07;;;;;;;6.82;2.20;;;;;;;14.76;100.00;96951.69;4963902;28;20286;-65
2022/07/03 01:42:34;;;;;;;6.32;2.10;;;;;;;14.54;100.00;96946.81;4965258;28;20531;-67
2022/07/03 01:45:02;;;;;;;3.42;2.42;;;;;;;14.47;100.00;96940.50;4963998;28;20086;-66
2022/07/03 01:47:28;;;;;;;3.33;2.03;;;;;;;14.45;100.00;96942.84;4960740;28;20086;-67
2022/07/03 01:49:54;;;;;;;3.55;2.20;;;;;;;14.52;100.00;96942.88;4979739;28;20043;-66
2022/07/03 01:52:21;;;;;;;4.82;2.03;;;;;;;14.55;100.00;96944.88;4970854;28;20050;-66
2022/07/03 01:54:49;;;;;;;3.78;2.10;;;;;;;14.50;100.00;96950.75;4962450;28;20039;-66
2022/07/03 01:57:15;;;;;;;7.45;2.10;;;;;;;14.64;100.00;96945.34;4961463;28;20074;-65
2022/07/03 01:59:42;;;;;;;5.60;2.45;;;;;;;14.70;100.00;96949.28;4964750;28;20043;-65
2022/07/03 02:02:14;;;;;;;3.00;2.22;;;;;;;14.73;100.00;96947.75;4959783;28;20391;-66
2022/07/03 02:04:45;;;;;;;7.85;2.35;;;;;;;14.67;100.00;96944.56;4965438;28;20503;-65
2022/07/03 02:07:18;;;;;;;4.65;2.17;;;;;;;14.62;100.00;96955.16;4976759;28;20541;-66
2022/07/03 02:09:54;;;;;;;7.72;2.50;;;;;;;14.54;100.00;96954.31;4983058;28;20046;-66
2022/07/03 02:12:26;;;;;;;8.07;2.67;;;;;;;14.58;100.00;96954.38;4978932;28;20038;-67
2022/07/03 02:15:03;;;;;;;4.90;2.38;;;;;;;14.76;100.00;96957.97;4984266;28;20081;-67
2022/07/03 02:17:42;;;;;;;7.13;2.50;;;;;;;14.87;100.00;96960.78;4980600;28;20042;-67
2022/07/03 02:20:09;;;;;;;6.43;2.80;;;;;;;14.89;100.00;96963.94;4970447;28;20049;-65
2022/07/03 02:22:39;;;;;;;4.13;2.67;;;;;;;14.89;100.00;96972.19;4963849;28;20105;-66
2022/07/03 02:25:08;;;;;;;4.65;2.10;;;;;;;14.88;100.00;96965.91;4973408;28;20051;-65
2022/07/03 02:27:43;;;;;;;4.97;2.10;;;;;;;14.90;100.00;96968.28;4952487;28;20054;-67
2022/07/03 02:30:11;;;;;;;4.22;2.45;;;;;;;14.92;100.00;96968.69;4958634;28;20134;-66
2022/07/03 02:32:43;;;;;;;5.95;2.42;;;;;;;14.87;100.00;96967.09;4960217;28;20400;-66
2022/07/03 02:35:15;;;;;;;5.20;2.25;;;;;;;14.77;100.00;96967.06;4958453;28;20522;-66
2022/07/03 02:37:46;;;;;;;5.70;2.55;;;;;;;14.49;100.00;96969.25;4963242;28;20082;-65
2022/07/03 02:40:40;;;;;;;5.53;2.63;;;;;;;14.28;100.00;96969.16;4958937;28;20042;-66
2022/07/03 02:43:28;;;;;;;3.70;2.53;;;;;;;14.06;100.00;96973.72;4955734;28;20122;-65
2022/07/03 02:46:48;;;;;;;6.25;3.05;;;;;;;13.94;100.00;96980.31;4957373;28;20047;-67
2022/07/03 02:49:02;;;;;;;5.68;2.47;;;;;;;14.06;100.00;96987.47;4963007;28;20062;-65
2022/07/03 02:51:35;;;;;;;5.82;2.88;;;;;;;13.94;100.00;96977.56;4974772;28;20039;-67
2022/07/03 02:54:08;;;;;;;4.40;3.03;;;;;;;13.78;100.00;96983.34;4975817;28;20039;-67
2022/07/03 02:56:40;;;;;;;8.18;3.38;;;;;;;13.66;100.00;96981.66;4971899;28;20062;-65
2022/07/03 02:59:39;;;;;;;6.28;3.22;;;;;;;13.57;100.00;96983.94;4962406;28;20054;-65
2022/07/03 03:02:23;;;;;;;4.82;3.17;;;;;;;13.51;100.00;96988.22;4962632;28;20034;-65
2022/07/03 03:05:12;;;;;;;5.70;3.65;;;;;;;13.28;100.00;96980.88;4956237;28;20145;-67
2022/07/03 03:08:16;;;;;;;7.57;3.95;;;;;;;12.96;100.00;96986.03;4954963;28;20566;-66
2022/07/03 03:10:44;;;;;;;6.72;4.55;;;;;;;12.91;100.00;96991.84;4962591;28;20117;-66
2022/07/03 03:13:12;;;;;;;13.38;4.70;;;;;;;12.90;100.00;96991.06;4957413;28;20371;-67
2022/07/03 03:15:43;;;;;;;10.40;5.45;;;;;;;12.97;100.00;96987.63;4952926;28;20039;-67
2022/07/03 03:18:12;;;;;;;5.85;4.00;;;;;;;13.17;100.00;96996.50;4965630;28;20047;-65
2022/07/03 03:20:39;;;;;;;8.98;3.97;;;;;;;13.32;100.00;96994.69;4955896;28;20050;-65
2022/07/03 03:23:16;;;;;;;5.90;3.70;;;;;;;13.52;100.00;96993.34;4960717;28;20121;-64
2022/07/03 03:25:41;;;;;;;6.40;3.38;;;;;;;13.64;100.00;96994.22;4964261;28;20125;-66
2022/07/03 03:28:07;;;;;;;9.23;3.22;;;;;;;13.74;100.00;97002.59;4958961;28;20081;-66
2022/07/03 03:30:35;;;;;;;4.20;2.65;;;;;;;13.80;100.00;96994.75;4939775;28;20042;-66
2022/07/03 03:33:01;;;;;;;5.43;2.92;;;;;;;13.83;100.00;96996.75;4924015;29;20050;-68
2022/07/03 03:35:27;;;;;;;7.65;2.97;;;;;;;13.76;100.00;97000.22;4927078;28;20436;-67
2022/07/03 03:37:53;;;;;;;10.80;3.03;;;;;;;13.64;100.00;97003.25;4936501;28;20036;-67
2022/07/03 03:40:19;;;;;;;9.82;2.92;;;;;;;13.53;100.00;97005.13;4937403;28;20551;-68
2022/07/03 03:42:44;;;;;;;10.38;2.88;;;;;;;13.53;100.00;97005.13;4942636;28;20051;-66
2022/07/03 03:45:10;;;;;;;5.18;2.90;;;;;;;13.61;100.00;97006.00;4930533;28;20052;-66
2022/07/03 03:47:36;;;;;;;4.25;2.70;;;;;;;13.64;100.00;97008.00;4956543;28;20050;-67
2022/07/03 03:50:02;;;;;;;5.15;2.40;;;;;;;13.67;100.00;97012.75;4962873;28;20130;-67
2022/07/03 03:52:29;;;;;;;3.63;2.70;;;;;;;13.69;100.00;97018.66;4956781;28;20043;-67
2022/07/03 03:54:55;;;;;;;7.78;2.88;;;;;;;13.84;100.00;97017.59;4966469;28;20046;-67
2022/07/03 03:57:23;;;;;;;5.75;2.50;;;;;;;13.84;100.00;97014.84;4961284;28;20046;-68
2022/07/03 03:59:49;;;;;;;3.47;2.88;;;;;;;13.81;100.00;97012.88;4966122;28;20142;-67
2022/07/03 04:02:15;;;;;;;5.38;2.60;;;;;;;13.85;100.00;97021.94;4962096;28;20612;-66
2022/07/03 04:04:41;;;;;;;6.43;2.50;;;;;;;14.01;100.00;97021.69;4941758;28;20051;-66
2022/07/03 04:07:06;;;;;;;5.60;2.60;;;;;;;14.27;100.00;97019.91;4942866;28;20050;-67
2022/07/03 04:09:32;;;;;;;9.75;2.70;;;;;;;14.46;100.00;97029.88;4948910;28;20110;-67
2022/07/03 04:11:57;;;;;;;4.15;2.33;;;;;;;14.62;100.00;97033.16;4951953;28;20043;-66
2022/07/03 04:14:23;;;;;;;4.38;2.33;;;;;;;14.76;100.00;97029.66;4960292;28;20605;-66
2022/07/03 04:16:49;;;;;;;6.22;2.15;;;;;;;14.72;100.00;97032.41;4965161;28;20047;-67
2022/07/03 04:19:14;;;;;;;6.05;2.70;;;;;;;14.97;100.00;97034.50;4961322;28;20050;-66
2022/07/03 04:21:40;;;;;;;5.47;2.45;;;;;;;15.08;100.00;97043.59;4986298;28;20049;-67
2022/07/03 04:24:06;;;;;;;5.32;2.42;;;;;;;15.34;100.00;97044.50;4969729;28;20062;-67
2022/07/03 04:26:31;;;;;;;6.60;2.20;;;;;;;15.55;100.00;97045.72;4991766;28;20051;-67
2022/07/03 04:28:57;;;;;;;4.20;2.35;;;;;;;15.68;100.00;97035.88;4988576;28;20055;-67
2022/07/03 04:31:22;;;;;;;4.30;2.15;;;;;;;15.79;100.00;97038.69;4985675;28;20041;-67
2022/07/03 04:33:48;;;;;;;4.78;2.35;;;;;;;15.99;100.00;97037.16;4978909;28;20042;-67
2022/07/03 04:36:14;;;;;;;5.10;2.38;;;;;;;16.19;100.00;97039.53;4960735;28;20047;-66
2022/07/03 04:38:39;;;;;;;3.10;2.15;;;;;;;16.28;100.00;97033.56;4966165;28;20141;-66
2022/07/03 04:41:05;;;;;;;5.55;2.30;;;;;;;16.13;100.00;97038.31;4960157;28;20559;-65
2022/07/03 04:43:30;;;;;;;4.85;2.40;;;;;;;15.93;100.00;97035.94;4965701;28;20130;-65
2022/07/03 04:45:56;;;;;;;4.13;2.10;;;;;;;16.22;100.00;97038.69;4965365;28;20039;-65
2022/07/03 04:48:21;;;;;;;9.60;2.38;;;;;;;16.43;100.00;97037.91;4960429;28;20046;-66
2022/07/03 04:50:47;;;;;;;5.63;2.08;;;;;;;16.79;100.00;97035.84;4964587;28;20070;-66
2022/07/03 04:53:12;;;;;;;3.78;2.20;;;;;;;18.05;100.00;97040.78;4960781;28;20082;-67
2022/07/03 04:55:37;;;;;;;5.10;1.98;;;;;;;20.07;100.00;97042.06;4966028;28;20034;-65
2022/07/03 04:58:03;;;;;;;7.82;1.98;;;;;;;20.97;94.26;97051.66;4959388;28;20349;-66
2022/07/03 05:00:29;;;;;;;6.55;1.65;;;;;;;21.24;92.94;97053.50;4978026;28;20059;-67
2022/07/03 05:02:54;;;;;;;5.93;1.45;;;;;;;22.81;85.25;97048.31;4966791;28;20039;-67
2022/07/03 05:05:19;;;;;;;3.05;1.45;;;;;;;24.64;74.71;97045.63;4958076;28;20334;-65
2022/07/03 05:07:45;;;;;;;5.65;1.42;;;;;;;25.69;64.65;97057.47;4965621;28;20534;-67
2022/07/03 05:10:11;;;;;;;5.80;1.33;;;;;;;26.16;61.45;97058.47;4975006;28;20074;-67
2022/07/03 05:12:36;;;;;;;7.53;1.60;;;;;;;27.81;55.97;97054.19;4963336;28;20075;-67
2022/07/03 05:15:03;;;;;;;4.20;1.40;;;;;;;29.12;50.58;97061.47;4964737;28;20461;-66
2022/07/03 05:17:28;;;;;;;3.65;1.02;;;;;;;30.04;47.29;97062.63;4943189;28;20137;-67
2022/07/03 05:22:38;;;;;;;9.48;1.67;;;;;;;29.69;47.61;97071.78;4964939;28;20113;-66
2022/07/03 05:25:04;;;;;;;4.10;1.30;;;;;;;29.25;48.18;97066.09;4962207;28;20038;-66
2022/07/03 05:27:30;;;;;;;3.45;1.08;;;;;;;29.32;48.68;97063.66;4943009;28;20079;-66
2022/07/03 05:29:56;;;;;;;6.95;1.10;;;;;;;30.58;46.08;97065.22;4945510;28;20071;-67
2022/07/03 05:32:21;;;;;;;8.40;1.38;;;;;;;30.12;46.25;97074.28;4940536;28;20498;-67
2022/07/03 05:34:46;;;;;;;2.17;1.00;;;;;;;30.06;45.86;97082.66;4943914;28;20035;-67
2022/07/03 05:37:12;;;;;;;6.50;1.30;;;;;;;29.28;49.16;97074.38;4942007;28;20099;-67
2022/07/03 05:39:37;;;;;;;4.60;1.10;;;;;;;30.17;47.19;97078.47;4948199;28;20485;-67
2022/07/03 05:42:04;;;;;;;2.55;1.20;;;;;;;29.41;47.15;97076.13;4959178;28;20084;-67
2022/07/03 05:44:29;;;;;;;3.67;1.35;;;;;;;28.86;50.54;97083.75;4970533;28;20382;-67
2022/07/03 05:46:55;;;;;;;3.83;1.30;;;;;;;29.39;48.14;97075.81;4944832;28;20054;-67
2022/07/03 05:49:21;;;;;;;2.42;1.30;;;;;;;29.89;46.88;97081.59;4957690;28;20051;-67
2022/07/03 05:51:46;;;;;;;1.10;0.77;;;;;;;30.69;46.20;97085.16;4965216;28;20518;-68
2022/07/03 05:54:12;;;;;;;5.38;1.38;;;;;;;30.40;44.52;97083.22;4959798;28;20060;-67
2022/07/03 05:56:38;;;;;;;3.33;1.33;;;;;;;29.45;49.00;97068.25;4964372;28;20039;-67
2022/07/03 05:59:03;;;;;;;4.78;0.98;;;;;;;31.91;42.98;97079.06;4954965;28;20057;-67
2022/07/03 06:01:29;;;;;;;2.28;0.90;;;;;;;32.84;41.66;97078.72;4962739;28;20050;-67
2022/07/03 06:03:55;;;;;;;2.15;1.30;;;;;;;33.63;37.53;97084.66;4963876;28;20054;-67
2022/07/03 06:06:20;;;;;;;2.78;1.20;;;;;;;34.45;37.67;97080.09;4958901;28;20166;-66
2022/07/03 06:08:46;;;;;;;3.88;2.33;;;;;;;32.32;41.53;97088.19;4964119;28;20130;-65
2022/07/03 06:11:11;;;;;;;5.00;1.45;;;;;;;30.48;45.70;97081.53;4954428;28;20050;-66
2022/07/03 06:13:36;;;;;;;3.55;1.70;;;;;;;28.57;52.39;97076.72;4964273;28;20045;-67
2022/07/03 06:16:02;;;;;;;4.43;1.20;;;;;;;28.56;55.40;97078.00;4962359;28;20046;-66
2022/07/03 06:18:28;;;;;;;2.45;1.40;;;;;;;27.30;59.02;97076.63;4958491;28;20054;-67
2022/07/03 06:20:53;;;;;;;2.53;1.35;;;;;;;28.38;55.84;97072.44;4968168;28;20435;-67
2022/07/03 06:23:19;;;;;;;6.25;1.70;;;;;;;29.92;50.39;97075.00;4959689;28;20043;-66
2022/07/03 06:25:44;;;;;;;2.45;1.30;;;;;;;31.98;45.26;97078.63;4962059;28;20050;-67
2022/07/03 06:28:09;;;;;;;1.92;0.93;;;;;;;31.27;46.09;97089.50;4951243;28;20047;-67
2022/07/03 06:30:35;;;;;;;3.33;1.23;;;;;;;32.16;43.96;97075.47;4978385;28;20537;-67
2022/07/03 06:33:01;;;;;;;2.38;1.20;;;;;;;33.53;40.69;97081.31;4964257;28;20349;-66
2022/07/03 06:35:26;;;;;;;2.67;1.55;;;;;;;32.05;43.65;97083.09;4958975;28;20138;-67
2022/07/03 06:37:52;;;;;;;3.92;1.30;;;;;;;29.41;49.07;97079.72;4962992;28;20087;-67
2022/07/03 06:40:18;;;;;;;2.28;1.25;;;;;;;32.20;44.27;97081.66;4955696;28;20046;-66
2022/07/03 06:42:43;;;;;;;4.25;1.55;;;;;;;32.88;41.53;97070.75;4962102;28;20535;-67
2022/07/03 06:45:09;;;;;;;6.35;1.70;;;;;;;32.13;41.44;97073.63;4956936;28;20051;-67
2022/07/03 06:47:38;;;;;;;3.45;1.30;;;;;;;31.32;43.01;97075.41;4962236;28;20138;-67
2022/07/03 06:50:05;;;;;;;1.88;1.15;;;;;;;32.13;41.83;97070.78;4956750;28;20061;-66
2022/07/03 06:52:31;;;;;;;3.60;1.30;;;;;;;33.65;37.92;97072.78;4963055;28;20475;-66
2022/07/03 06:54:56;;;;;;;1.75;1.05;;;;;;;33.42;38.55;97067.09;4964242;28;20034;-66
2022/07/03 06:57:22;;;;;;;2.40;0.95;;;;;;;33.70;38.56;97072.81;4962875;28;20061;-66
2022/07/03 06:59:48;;;;;;;2.50;1.10;;;;;;;34.38;35.25;97066.41;4968693;28;20050;-66
2022/07/03 07:02:13;;;;;;;2.22;1.00;;;;;;;34.42;35.79;97059.13;4961351;28;20042;-66
2022/07/03 07:04:39;;;;;;;2.60;1.00;;;;;;;32.09;40.39;97061.75;4961870;28;20599;-66
2022/07/03 07:07:04;;;;;;;2.20;0.98;;;;;;;32.15;39.49;97067.47;4974573;28;20101;-65
2022/07/03 07:09:30;;;;;;;1.98;1.35;;;;;;;29.21;47.60;97060.66;4981775;28;20048;-66
2022/07/03 07:11:56;;;;;;;2.92;1.10;;;;;;;31.67;42.64;97062.41;4953932;28;20134;-66
2022/07/03 07:14:21;;;;;;;2.58;1.13;;;;;;;33.23;39.13;97054.66;4960782;28;20097;-66
2022/07/03 07:16:47;;;;;;;4.40;1.30;;;;;;;34.55;36.83;97058.59;4977607;28;20125;-66
2022/07/03 07:19:12;;;;;;;1.90;1.23;;;;;;;33.48;37.64;97058.59;4957220;28;20049;-66
2022/07/03 07:21:38;;;;;;;1.70;1.00;;;;;;;34.62;35.84;97065.81;4963093;28;20122;-66
2022/07/03 07:24:03;;;;;;;2.88;1.10;;;;;;;34.24;35.65;97060.47;4959814;28;20109;-66
2022/07/03 07:26:29;;;;;;;2.20;0.93;;;;;;;33.88;37.02;97060.19;4959046;28;20047;-66
2022/07/03 07:28:54;;;;;;;3.70;1.13;;;;;;;35.17;34.77;97061.22;4957084;28;20061;-67
2022/07/03 07:31:20;;;;;;;2.30;0.73;;;;;;;35.49;34.28;97060.03;4958826;28;20134;-67
2022/07/03 07:33:45;;;;;;;2.22;1.10;;;;;;;34.45;35.53;97055.25;4962680;28;20066;-67
2022/07/03 07:36:11;;;;;;;6.30;1.17;;;;;;;32.96;38.74;97051.94;4956579;28;20053;-66
2022/07/03 07:38:36;;;;;;;2.08;0.85;;;;;;;34.13;36.41;97059.69;4957449;28;20043;-66
2022/07/03 07:41:02;;;;;;;1.30;1.00;;;;;;;34.49;34.94;97046.47;4956797;28;20038;-67
2022/07/03 07:43:27;;;;;;;2.97;0.95;;;;;;;33.82;36.71;97048.06;4959188;28;20058;-66
2022/07/03 07:45:53;;;;;;;2.05;1.10;;;;;;;33.98;36.68;97054.25;4963135;28;20047;-64
2022/07/03 07:48:18;;;;;;;2.35;1.30;;;;;;;32.84;38.36;97052.41;4958731;28;20138;-66
2022/07/03 07:50:44;;;;;;;3.65;1.23;;;;;;;32.71;39.20;97047.97;4964111;28;20038;-67
2022/07/03 07:53:09;;;;;;;3.08;1.30;;;;;;;32.21;39.85;97051.25;4957307;28;20074;-66
2022/07/03 07:55:35;;;;;;;2.70;1.33;;;;;;;32.55;39.39;97046.56;4950552;28;20223;-66
2022/07/03 07:58:00;;;;;;;3.10;1.25;;;;;;;32.29;40.68;97046.69;4962622;28;20046;-67
2022/07/03 08:00:26;;;;;;;4.30;1.50;;;;;;;30.55;43.77;97048.47;4957043;28;20067;-66
2022/07/03 08:05:36;;;;;;;2.17;1.15;;;;;;;31.80;40.89;97043.75;4936188;28;20051;-66
2022/07/03 08:08:07;;;;;;;2.90;1.13;;;;;;;31.88;41.40;97044.06;4960174;28;20054;-66
2022/07/03 08:10:37;;;;;;;7.18;1.60;;;;;;;31.03;42.60;97046.03;4962436;28;20050;-66
2022/07/03 08:13:03;;;;;;;2.83;1.35;;;;;;;30.92;42.63;97047.94;4961045;28;20038;-66
2022/07/03 08:15:28;;;;;;;6.50;1.45;;;;;;;29.81;44.76;97044.53;4961757;28;20043;-66
2022/07/03 08:17:54;;;;;;;2.47;1.20;;;;;;;29.66;45.58;97038.09;4967426;28;20138;-66
2022/07/03 08:20:20;;;;;;;1.73;1.30;;;;;;;29.26;46.17;97039.44;4961051;28;20062;-66
2022/07/03 08:22:45;;;;;;;4.68;1.55;;;;;;;28.85;47.03;97039.16;4974883;28;20460;-67
2022/07/03 08:25:11;;;;;;;2.50;1.35;;;;;;;29.39;46.90;97048.41;4955324;28;20043;-65
2022/07/03 08:27:36;;;;;;;3.65;1.40;;;;;;;28.90;46.79;97044.91;4963472;28;20046;-64
2022/07/03 08:30:03;;;;;;;3.10;1.50;;;;;;;29.05;46.26;97044.94;4968909;28;20155;-64
2022/07/03 08:32:29;;;;;;;1.95;1.33;;;;;;;29.27;45.85;97038.19;4956629;28;20046;-69
2022/07/03 08:34:54;;;;;;;4.32;1.23;;;;;;;27.99;48.68;97033.66;4980958;28;20046;-66
2022/07/03 08:37:20;;;;;;;2.40;1.38;;;;;;;28.99;47.21;97032.75;4959881;28;20047;-66
2022/07/03 08:39:45;;;;;;;2.95;1.20;;;;;;;29.12;44.13;97027.63;4965846;28;20047;-66
2022/07/03 08:42:12;;;;;;;2.75;1.10;;;;;;;29.38;44.92;97029.91;4961175;28;20042;-66
2022/07/03 08:44:39;;;;;;;1.67;1.15;;;;;;;29.72;44.72;97025.63;4965310;28;20047;-66
2022/07/03 08:47:08;;;;;;;3.38;1.73;;;;;;;30.18;42.78;97017.88;4975594;28;20369;-65
2022/07/03 08:49:34;;;;;;;3.28;1.20;;;;;;;29.85;43.30;97027.41;4965270;28;20119;-66
2022/07/03 08:52:00;;;;;;;2.35;1.27;;;;;;;30.47;43.35;97025.53;4963142;28;20463;-66
2022/07/03 08:54:25;;;;;;;2.63;1.52;;;;;;;30.51;42.87;97030.97;4960743;28;20043;-64
2022/07/03 08:56:51;;;;;;;3.03;1.38;;;;;;;30.21;42.26;97017.66;4963096;28;20042;-66
2022/07/03 08:59:18;;;;;;;3.40;1.00;;;;;;;29.35;44.97;97016.78;4956612;28;20043;-66
2022/07/03 09:01:46;;;;;;;2.70;1.23;;;;;;;29.65;44.99;97013.97;4977455;28;20045;-67
2022/07/03 09:04:15;;;;;;;1.88;1.13;;;;;;;29.72;43.97;97024.84;4959989;28;20039;-66
2022/07/03 09:06:41;;;;;;;2.08;1.33;;;;;;;29.48;43.81;97017.28;4961873;28;20109;-66
2022/07/03 09:09:11;;;;;;;2.58;1.02;;;;;;;29.37;43.77;97019.91;4959793;28;20050;-66
2022/07/03 09:11:37;;;;;;;;;;;;;;;28.73;46.35;97019.16;4965982;28;20047;-67
2022/07/03 09:14:06;;;;;;;2.70;1.13;;;;;;;28.35;48.02;97012.19;4977474;28;20008;-66
2022/07/03 09:16:35;;;;;;;2.97;1.17;;;;;;;29.03;46.32;97007.97;4965186;28;20523;-66
2022/07/03 09:19:03;;;;;;;;;;;;;;;29.34;44.66;97012.41;4966493;28;20814;-67
2022/07/03 09:21:37;;;;;;;5.05;1.48;;;;;;;29.46;44.91;97011.34;4964622;28;19918;-67
2022/07/03 09:24:05;;;;;;;2.88;1.10;;;;;;;29.19;45.66;97015.22;4976265;28;20042;-67
2022/07/03 09:26:31;;;;;;;2.85;1.67;;;;;;;29.88;41.99;97015.91;4991065;28;20047;-66
2022/07/03 09:28:56;;;;;;;1.73;0.90;;;;;;;28.83;42.85;97011.44;4965968;28;20458;-65
2022/07/03 09:31:27;;;;;;;2.70;1.20;;;;;;;29.96;42.14;97009.84;4959741;28;20220;-67
2022/07/03 09:33:54;;;;;;;1.30;0.80;;;;;;;29.34;42.96;97013.19;4966247;28;20045;-66
2022/07/03 09:36:43;;;;;;;2.88;0.90;;;;;;;29.60;42.31;97004.13;4960808;28;20050;-67
2022/07/03 09:39:26;;;;;;;3.27;1.10;;;;;;;30.05;42.08;96998.44;4957335;28;20047;-66
2022/07/03 09:42:11;;;;;;;1.65;1.10;;;;;;;30.35;41.10;97010.44;4963963;28;20070;-66
2022/07/03 09:44:47;;;;;;;2.38;1.10;;;;;;;30.78;42.17;97004.31;4961469;28;20043;-66
2022/07/03 09:47:25;;;;;;;3.30;1.13;;;;;;;31.10;40.82;97002.41;4976665;28;20077;-67
2022/07/03 09:49:59;;;;;;;2.67;1.10;;;;;;;29.98;43.79;97001.66;4971418;28;20050;-67
2022/07/03 09:52:39;;;;;;;2.25;1.13;;;;;;;30.78;40.18;96995.84;4965146;28;20292;-67
2022/07/03 09:55:10;;;;;;;2.47;0.80;;;;;;;30.49;39.89;96989.84;4962780;28;20392;-68
2022/07/03 09:57:46;;;;;;;3.58;1.00;;;;;;;31.09;38.90;96981.03;4958239;28;20043;-67
2022/07/03 10:00:35;;;;;;;5.00;1.05;;;;;;;30.75;40.70;96977.81;4959997;28;20058;-67
2022/07/03 10:03:05;;;;;;;2.78;1.00;;;;;;;30.28;42.33;96979.75;4971980;28;20141;-66
2022/07/03 10:05:32;;;;;;;1.85;0.80;;;;;;;30.91;40.57;96982.09;4970602;28;20138;-66
2022/07/03 10:08:02;;;;;;;1.73;0.82;;;;;;;31.11;40.09;96980.53;4964180;28;20057;-66
2022/07/03 10:10:30;;;;;;;3.15;0.90;;;;;;;31.27;39.12;96987.66;4961876;28;20054;-65
2022/07/03 10:12:56;;;;;;;1.70;0.90;;;;;;;30.83;40.48;96983.81;4964927;28;20047;-66
2022/07/03 10:15:23;;;;;;;1.52;0.90;;;;;;;31.04;41.33;96984.56;4959397;28;21055;-67
2022/07/03 10:17:51;;;;;;;2.92;1.27;;;;;;;31.26;39.22;96981.22;4978873;28;20132;-66
2022/07/03 10:20:33;;;;;;;1.60;1.00;;;;;;;30.49;39.89;96986.25;4968614;28;20070;-68
2022/07/03 10:22:59;;;;;;;2.30;0.82;;;;;;;30.99;39.65;96979.63;4966428;28;20068;-66
2022/07/03 10:25:25;;;;;;;4.47;0.80;;;;;;;31.37;39.42;96975.66;4961564;28;20051;-65
2022/07/03 10:27:51;;;;;;;2.42;1.30;;;;;;;31.76;38.78;96978.03;4965128;28;20043;-66
2022/07/03 10:30:21;;;;;;;4.57;0.73;;;;;;;31.42;37.74;96977.75;4962398;28;20135;-67
2022/07/03 10:32:51;;;;;;;1.17;0.70;;;;;;;30.65;37.43;96979.25;4966371;28;20047;-65
2022/07/03 10:35:44;;;;;;;2.13;0.65;;;;;;;30.52;37.18;96973.94;4976419;28;20070;-66
2022/07/03 10:38:41;;;;;;;2.47;0.70;;;;;;;30.57;36.78;96975.28;4960139;28;20046;-66
2022/07/03 10:46:48;;;;;;;3.50;0.90;;;;;;;30.69;38.00;96971.31;4955449;28;20049;-67
2022/07/03 10:49:14;;;;;;;1.35;0.50;;;;;;;30.87;36.14;96973.06;4962591;28;20579;-66
2022/07/03 10:52:00;;;;;;;2.25;0.65;;;;;;;31.32;37.73;96969.94;4955550;28;20047;-66
2022/07/03 10:54:33;;;;;;;4.30;0.90;;;;;;;31.14;37.63;96968.22;4953465;28;20042;-67
2022/07/03 10:56:59;;;;;;;1.95;0.65;;;;;;;30.43;38.34;96974.06;4965021;28;20066;-68
2022/07/03 10:59:33;;;;;;;1.83;0.50;;;;;;;29.59;40.29;96967.94;4975476;28;20038;-69
2022/07/03 11:02:18;;;;;;;3.85;0.70;;;;;;;29.42;39.39;96959.19;4963900;28;20047;-69
2022/07/03 11:04:59;;;;;;;1.88;0.60;;;;;;;29.50;39.57;96963.19;4955053;28;20069;-66
2022/07/03 11:07:42;;;;;;;1.00;0.55;;;;;;;29.47;40.61;96964.16;4962086;28;20409;-66
2022/07/03 11:10:12;;;;;;;2.85;0.70;;;;;;;29.73;42.22;96950.97;4972810;28;20137;-66
2022/07/03 11:12:55;;;;;;;1.45;0.55;;;;;;;29.84;40.68;96956.06;4948977;28;20043;-66
2022/07/03 11:15:41;;;;;;;2.08;0.60;;;;;;;29.98;39.42;96954.47;4941893;28;20441;-66
2022/07/03 11:18:13;;;;;;;2.28;0.77;;;;;;;30.04;39.08;96946.84;4965847;28;20058;-70
2022/07/03 11:20:41;;;;;;;5.28;0.85;;;;;;;29.37;39.96;96938.09;4983007;28;20138;-68
2022/07/03 11:23:09;;;;;;;1.48;0.77;;;;;;;29.61;39.74;96942.84;4992510;28;20037;-68
2022/07/03 11:25:40;;;;;;;1.30;0.47;;;;;;;30.31;36.12;96937.19;4980924;28;20042;-68
2022/07/03 11:28:06;;;;;;;1.23;0.50;;;;;;;30.70;34.73;96936.09;4955050;28;20051;-68
2022/07/03 11:30:34;;;;;;;2.17;0.43;;;;;;;30.60;36.14;96935.50;4952191;28;20590;-67
2022/07/03 11:33:00;;;;;;;3.03;0.68;;;;;;;30.76;35.00;96928.47;4962085;28;20043;-66
2022/07/03 11:35:48;;;;;;;0.82;0.40;;;;;;;30.80;33.61;96931.09;4961085;28;20489;-67
2022/07/03 11:38:31;;;;;;;1.42;0.50;;;;;;;30.33;35.61;96921.78;4974417;28;20403;-66
2022/07/03 11:40:59;;;;;;;1.60;0.40;;;;;;;30.63;34.35;96919.59;4964459;28;20131;-66
2022/07/03 11:43:25;;;;;;;2.85;0.50;;;;;;;29.71;32.98;96916.81;4967704;28;20571;-66
2022/07/03 11:45:51;;;;;;;1.30;0.50;;;;;;;29.42;35.31;96911.22;4983234;28;20086;-66
2022/07/03 11:48:22;;;;;;;2.70;0.50;;;;;;;29.40;36.99;96902.47;4977845;28;20058;-66
2022/07/03 11:50:49;;;;;;;5.05;1.35;;;;;;;29.84;36.25;96908.06;4967219;28;20035;-67